Bishopville, South Carolina
Current Conditions -  °F | °C
As of 10:15 AM on Saturday 22 Nov 2014 (Local Time) from KSMS Reporting Station
Clear Clear  
Wind Chill: 44°   Ceiling: Unl
Heat Index: 46°   Visibility: 10mi
Dew Point: 28°   Wind: 5mph
Humidity: 50%   Direction: NA
Pressure: 30.55"   Gusts: NA
Location:  34.22°N, 80.25°W
Report Text: KSMS 221515Z AUTO VRB04KT 10SM CLR 08/M02 A3055 RMK AO2
Loading
Personal Weather Stations






























Interactive Weather Map New forecast layout! Learn more

10-Day Weather Forecast

Advertisements
Track Severe Weather on mobile